Sign in to follow this  
EngineRoom

For anyone who likes flying in challenging weather!

Recommended Posts

It's a little bit windy in the UK today. Makes for some challenging virtual flying...I just loaded up Dave Maltby's BAC 1-11 with live weather courtesy of ASV6 at my local airport (Manston - EGMH) for a quick flight. Quite a crosswind!EGMH 181205Z 181322 23027G40KT 9999 FEW012 BKN020 TEMPO 1316 4000 RA BKN012 TEMPO 1314 23035G50KT BECMG 1416 26027G40KT TEMPO 1318 26040G60KT

Share this post


Link to post
Share on other sites
Help AVSIM continue to serve you!
Please donate today!

Create an account or sign in to comment

You need to be a member in order to leave a comment

Create an account

Sign up for a new account in our community. It's easy!

Register a new account

Sign in

Already have an account? Sign in here.

Sign In Now
Sign in to follow this